Excellence — KTDP — position and weather

sailwx.info

Track history (hours):
 
Tides and Currents Weather Stations Pressure Air Temp Water Temp Dewpoint Dewpoint Depression Visibility Wind Speed Wind Dir Waves Ship Positions

Excellence

Owner: AJVS, INC, Seattle, WA. More information available from US FCC via Universal Licensing System and Coast Guard Vessel Documentation Center.

Last reported at 2017-Dec-02 16:06 UTC. Time now 2017-Dec-12 12:21 UTC.
Position N 47°38' W 122°23'.
Warning: this ship's position is 9 days out of date.

Length 112 m; draft 6 m.

Type: Other ship. MMSI: 338162000.

Date/timePositionNaut miles runAvg speedWind from/ knotsBaromVisibWave heightAir tempDewpointWater temp
2017-Dec-02 16:06N 47°38' W 122°23'0 0.0
2017-Dec-02 16:01N 47°38' W 122°23'0 0.4
2017-Dec-02 15:31N 47°38' W 122°23'2 4.0
2017-Dec-02 15:01N 47°37' W 122°26'3 5.1
2017-Dec-02 14:31N 47°39' W 122°28'3 6.8
2017-Dec-02 14:01N 47°43' W 122°28'3 6.7
2017-Dec-02 13:31N 47°46' W 122°27'4 7.3
2017-Dec-02 13:01N 47°50' W 122°28'3 6.9
2017-Dec-02 12:31N 47°53' W 122°30'3 6.8
2017-Dec-02 12:01N 47°56' W 122°32'3 6.9
2017-Dec-02 11:30N 47°59' W 122°36'4 8.3
2017-Dec-02 10:58N 48°02' W 122°39'4 7.4
2017-Dec-02 10:27N 48°06' W 122°40'410.0
2017-Dec-02 10:00N 48°09' W 122°45'5 9.2
2017-Dec-02 09:30N 48°11' W 122°51'4 8.2
2017-Dec-02 09:00N 48°11' W 122°57'5 9.4
2017-Dec-02 08:30N 48°12' W 123°05'5 9.7
2017-Dec-02 07:59N 48°12' W 123°12'5 9.9
2017-Dec-02 07:31N 48°13' W 123°19'510.5
2017-Dec-02 07:00N 48°13' W 123°27'510.1
2017-Dec-02 06:30N 48°13' W 123°35'5 9.7
2017-Dec-02 06:01N 48°13' W 123°42'5 9.6
2017-Dec-02 05:30N 48°13' W 123°49'5 9.7
2017-Dec-02 05:01N 48°14' W 123°56'5 9.8
2017-Dec-02 04:31N 48°16' W 124°03'611.4
2017-Dec-02 04:00N 48°18' W 124°11'611.1
2017-Dec-02 03:30N 48°20' W 124°18'510.4
2017-Dec-02 03:00N 48°23' W 124°25'510.1
2017-Dec-02 02:31N 48°25' W 124°32'5 9.8
2017-Dec-02 02:01N 48°27' W 124°39'5 8.9
2017-Dec-02 01:30N 48°29' W 124°45'4 8.9
2017-Dec-02 01:01N 48°28' W 124°52'4 8.9
2017-Dec-02 00:31N 48°28' W 124°58'4 8.8
2017-Dec-02 00:01N 48°25' W 125°03'5 9.7
2017-Dec-01 23:30N 48°20' W 125°05'510.1
2017-Dec-01 23:00N 48°15' W 125°06'6 9.7
2017-Dec-01 22:25N 48°10' W 125°08'4 9.2
2017-Dec-01 21:58N 48°06' W 125°09'6 9.1
2017-Dec-01 21:21N 48°00' W 125°11'3 3.4
2017-Dec-01 20:31N 47°58' W 125°08'0 4.2
2017-Dec-01 20:29N 47°58' W 125°08'3 4.1
2017-Dec-01 19:46N 47°58' W 125°03'1 3.8
2017-Dec-01 19:30N 47°58' W 125°02'3 4.9
2017-Dec-01 18:55N 47°58' W 125°06'3 5.1
2017-Dec-01 18:24N 47°58' W 125°10'3 5.7
2017-Dec-01 17:58N 47°59' W 125°14'2 3.7
2017-Dec-01 17:21N 47°59' W 125°10'2 4.2
2017-Dec-01 16:56N 47°59' W 125°08'2 4.4
2017-Dec-01 16:23N 47°58' W 125°04'2 3.9
2017-Dec-01 15:59N 47°58' W 125°02'3 5.1
2017-Dec-01 15:23N 47°58' W 125°06'2 5.0
2017-Dec-01 14:59N 47°58' W 125°09'2 1.1
2017-Dec-01 13:03N 47°58' W 125°06'0 3.1
2017-Dec-01 13:00N 47°58' W 125°06'2 3.9
2017-Dec-01 12:29N 47°58' W 125°03'1 1.4
2017-Dec-01 11:59N 47°57' W 125°04'3 5.9
2017-Dec-01 11:28N 47°57' W 125°08'0 0.2
2017-Dec-01 09:48N 47°57' W 125°09'2 4.7
2017-Dec-01 09:23N 47°57' W 125°06'2 4.4
2017-Dec-01 09:00N 47°57' W 125°03'0 0.3
2017-Dec-01 08:30N 47°57' W 125°04'3 5.2
2017-Dec-01 08:00N 47°58' W 125°07'1 1.0
2017-Dec-01 07:25N 47°58' W 125°08'2 4.5
2017-Dec-01 06:52N 47°57' W 125°05'1 3.9
2017-Dec-01 06:29N 47°57' W 125°02'3 5.4
2017-Dec-01 05:55N 47°58' W 125°07'2 1.4
2017-Dec-01 04:06N 47°58' W 125°03'0 3.5
2017-Dec-01 04:00N 47°58' W 125°03'1 2.7
2017-Dec-01 03:30N 47°57' W 125°05'1 1.2
2017-Dec-01 02:18N 47°58' W 125°07'2 3.5
2017-Dec-01 01:47N 47°58' W 125°04'1 3.5
2017-Dec-01 01:30N 47°58' W 125°03'1 2.5
2017-Dec-01 01:00N 47°57' W 125°04'3 5.0
2017-Dec-01 00:24N 47°58' W 125°09'1 2.3
2017-Dec-01 00:00N 47°58' W 125°08'3 4.3
2017-Nov-30 23:19N 47°58' W 125°03'1 4.3
2017-Nov-30 22:59N 47°58' W 125°01'1 1.2
2017-Nov-30 22:30N 47°58' W 125°02'4 5.4
2017-Nov-30 21:50N 47°58' W 125°07'12 0.9
2017-Nov-30 09:32N 47°58' W 125°24'0 5.8
2017-Nov-30 09:28N 47°58' W 125°25'7 0.4
2017-Nov-29 14:53N 48°02' W 125°16'6 9.0
2017-Nov-29 14:15N 48°05' W 125°09'3 9.6
2017-Nov-29 13:58N 48°07' W 125°07'5 9.9
2017-Nov-29 13:29N 48°12' W 125°04'510.1
2017-Nov-29 13:00N 48°16' W 125°02'510.1
2017-Nov-29 12:30N 48°21' W 124°59'5 9.4
2017-Nov-29 12:01N 48°25' W 124°56'4 8.7
2017-Nov-29 11:31N 48°26' W 124°50'5 9.9
2017-Nov-29 11:01N 48°26' W 124°42'4 8.8
2017-Nov-29 10:31N 48°24' W 124°36'2 3.7
2017-Nov-29 10:01N 48°23' W 124°34'1 1.9
2017-Nov-29 09:30N 48°23' W 124°32'1 2.5
2017-Nov-29 09:01N 48°22' W 124°31'1 2.4
2017-Nov-29 08:31N 48°23' W 124°32'1 2.3
2017-Nov-29 08:01N 48°23' W 124°34'0 0.8
2017-Nov-29 07:30N 48°23' W 124°35'510.0
2017-Nov-29 07:01N 48°26' W 124°40'611.7
2017-Nov-29 06:30N 48°27' W 124°49'510.4
2017-Nov-29 05:59N 48°25' W 124°56'611.7
2017-Nov-29 05:29N 48°19' W 124°60'612.0
2017-Nov-29 05:00N 48°14' W 125°03'612.3
2017-Nov-29 04:30N 48°08' W 125°06'14 0.5
2017-Nov-27 23:57N 47°58' W 125°21'4 8.0
2017-Nov-27 23:28N 48°00' W 125°25'12 1.0
2017-Nov-27 11:08N 47°55' W 125°10'1 4.7
2017-Nov-27 10:54N 47°56' W 125°10'2 4.8
2017-Nov-27 10:28N 47°58' W 125°11'3 5.6
2017-Nov-27 10:00N 48°00' W 125°12'4 6.5
2017-Nov-27 09:25N 48°04' W 125°11'3 7.0
2017-Nov-27 09:00N 48°07' W 125°09'4 6.7
2017-Nov-27 08:28N 48°10' W 125°06'3 7.2
2017-Nov-27 08:00N 48°13' W 125°04'4 7.3
2017-Nov-27 07:31N 48°16' W 125°02'4 7.3
2017-Nov-27 07:00N 48°19' W 125°00'4 7.1
2017-Nov-27 06:30N 48°23' W 124°58'3 6.7
2017-Nov-27 06:00N 48°26' W 124°55'3 5.7
2017-Nov-27 05:30N 48°27' W 124°52'3 6.4
2017-Nov-27 05:00N 48°27' W 124°47'3 5.4
2017-Nov-27 04:31N 48°27' W 124°43'3 5.2
2017-Nov-27 04:01N 48°26' W 124°39'3 5.5
2017-Nov-27 03:31N 48°25' W 124°35'3 5.1
2017-Nov-27 03:01N 48°24' W 124°32'3 5.5
2017-Nov-27 02:30N 48°22' W 124°28'3 5.6
2017-Nov-27 02:00N 48°21' W 124°24'3 5.6
2017-Nov-27 01:30N 48°20' W 124°21'2 5.0
2017-Nov-27 01:00N 48°21' W 124°24'3 5.9
2017-Nov-27 00:30N 48°22' W 124°28'3 5.8
2017-Nov-27 00:01N 48°24' W 124°32'1 1.6
2017-Nov-26 23:30N 48°23' W 124°31'3 5.1
2017-Nov-26 23:01N 48°22' W 124°28'3 5.2
2017-Nov-26 22:31N 48°21' W 124°24'2 3.2
2017-Nov-26 22:01N 48°20' W 124°22'3 5.5
2017-Nov-26 21:30N 48°22' W 124°26'2 4.8
2017-Nov-26 21:01N 48°20' W 124°23'3 5.6
2017-Nov-26 20:30N 48°19' W 124°19'3 5.6
2017-Nov-26 20:01N 48°18' W 124°15'3 5.1
2017-Nov-26 19:30N 48°17' W 124°12'3 5.4
2017-Nov-26 19:00N 48°16' W 124°08'0 0.4
2017-Nov-26 18:30N 48°15' W 124°08'3 6.0
2017-Nov-26 18:00N 48°17' W 124°12'3 6.7
2017-Nov-26 17:31N 48°18' W 124°16'3 6.8
2017-Nov-26 17:01N 48°20' W 124°21'4 7.1
2017-Nov-26 16:31N 48°22' W 124°25'2 4.1
2017-Nov-26 16:00N 48°21' W 124°22'2 4.4
2017-Nov-26 15:30N 48°20' W 124°19'2 4.5
2017-Nov-26 15:01N 48°19' W 124°16'2 4.5
2017-Nov-26 14:30N 48°18' W 124°13'2 4.4
2017-Nov-26 14:01N 48°17' W 124°10'2 4.4
2017-Nov-26 13:31N 48°16' W 124°07'1 1.4
2017-Nov-26 13:00N 48°16' W 124°06'3 5.4
2017-Nov-26 12:31N 48°17' W 124°10'12 3.7
2017-Nov-26 09:12N 48°22' W 124°26'1 5.4
2017-Nov-26 09:01N 48°22' W 124°25'3 5.6
2017-Nov-26 08:30N 48°20' W 124°21'3 6.7
2017-Nov-26 08:00N 48°19' W 124°17'4 7.7
2017-Nov-26 07:30N 48°17' W 124°12'4 7.7
2017-Nov-26 07:01N 48°16' W 124°06'1 1.2
2017-Nov-26 06:30N 48°16' W 124°07'2 4.5
2017-Nov-26 06:01N 48°17' W 124°10'2 5.0
2017-Nov-26 05:31N 48°18' W 124°14'3 5.4
2017-Nov-26 05:01N 48°19' W 124°17'3 5.7
2017-Nov-26 04:30N 48°20' W 124°21'3 5.7
2017-Nov-26 04:00N 48°21' W 124°25'3 5.9
2017-Nov-26 03:31N 48°23' W 124°29'3 5.6
2017-Nov-26 03:01N 48°24' W 124°33'3 5.2
2017-Nov-26 02:31N 48°25' W 124°36'2 4.8
2017-Nov-26 02:01N 48°26' W 124°40'2 4.7
2017-Nov-26 01:30N 48°27' W 124°43'2 4.6
2017-Nov-26 01:01N 48°27' W 124°46'2 4.2
2017-Nov-26 00:29N 48°27' W 124°50'2 4.2
2017-Nov-26 00:00N 48°27' W 124°53'3 5.9
2017-Nov-25 23:29N 48°25' W 124°56'1 1.8
2017-Nov-25 23:00N 48°24' W 124°57'2 4.8
2017-Nov-25 22:30N 48°22' W 124°58'2 4.2
2017-Nov-25 21:59N 48°20' W 124°60'1 2.2
2017-Nov-25 21:30N 48°19' W 125°01'2 4.8
2017-Nov-25 21:01N 48°21' W 124°60'2 4.0
2017-Nov-25 20:29N 48°23' W 124°59'0 0.3
2017-Nov-25 20:01N 48°23' W 124°59'3 5.7
2017-Nov-25 19:30N 48°20' W 125°00'2 5.0
2017-Nov-25 19:00N 48°18' W 125°01'2 3.6
2017-Nov-25 18:30N 48°20' W 124°60'2 3.5
2017-Nov-25 18:00N 48°21' W 124°59'2 3.2
2017-Nov-25 17:30N 48°23' W 124°58'2 3.3
2017-Nov-25 17:00N 48°24' W 124°57'1 2.7
2017-Nov-25 16:30N 48°25' W 124°56'3 5.0
2017-Nov-25 16:00N 48°23' W 124°58'3 5.6
2017-Nov-25 15:30N 48°21' W 124°60'2 4.0
2017-Nov-25 15:00N 48°19' W 125°01'2 3.2
2017-Nov-25 14:30N 48°20' W 124°59'1 2.7
2017-Nov-25 14:00N 48°21' W 124°59'2 3.1
2017-Nov-25 13:30N 48°23' W 124°58'2 3.0
2017-Nov-25 12:59N 48°24' W 124°57'1 1.3
2017-Nov-25 12:31N 48°25' W 124°57'3 5.1
2017-Nov-25 12:01N 48°23' W 124°58'3 5.4
2017-Nov-25 11:29N 48°20' W 124°60'1 1.7
2017-Nov-25 10:59N 48°19' W 125°00'1 2.3
2017-Nov-25 10:30N 48°20' W 124°60'1 2.4
2017-Nov-25 10:00N 48°21' W 124°59'1 2.8
2017-Nov-25 09:31N 48°23' W 124°58'2 3.6
2017-Nov-25 09:00N 48°24' W 124°57'2 4.1
2017-Nov-25 08:30N 48°26' W 124°55'3 7.0
2017-Nov-25 08:00N 48°27' W 124°50'4 7.9
2017-Nov-25 07:31N 48°26' W 124°44'5 9.6
2017-Nov-25 07:01N 48°24' W 124°38'2 3.8
2017-Nov-25 06:30N 48°24' W 124°35'0 0.4
2017-Nov-25 06:01N 48°24' W 124°35'2 3.6
2017-Nov-25 05:31N 48°23' W 124°33'2 4.8
2017-Nov-25 05:01N 48°25' W 124°35'611.0
2017-Nov-25 04:30N 48°27' W 124°43'611.8
2017-Nov-25 04:00N 48°27' W 124°52'611.3
2017-Nov-25 03:30N 48°25' W 124°60'612.1
2017-Nov-25 03:00N 48°19' W 125°04'611.8
2017-Nov-25 02:28N 48°13' W 125°06'612.9
2017-Nov-25 01:59N 48°07' W 125°08'11 0.4
2017-Nov-23 19:46N 47°59' W 125°18'4 6.9
2017-Nov-23 19:12N 48°02' W 125°22'  
Track history (hours):
 
Tides and Currents Weather Stations Pressure Air Temp Water Temp Dewpoint Dewpoint Depression Visibility Wind Speed Wind Dir Waves Ship Positions

Excellence

Owner: AJVS, INC, Seattle, WA. More information available from US FCC via Universal Licensing System and Coast Guard Vessel Documentation Center.

Last reported at 2017-Dec-02 16:06 UTC. Time now 2017-Dec-12 12:21 UTC.
Position N 47°38' W 122°23'.
Warning: this ship's position is 9 days out of date.

Length 112 m; draft 6 m.

Type: Other ship. MMSI: 338162000.

Date/timePositionNaut miles runAvg speedWind from/ knotsBaromVisibWave heightAir tempDewpointWater temp
2017-Dec-02 16:06N 47°38' W 122°23'0 0.0
2017-Dec-02 16:01N 47°38' W 122°23'0 0.4
2017-Dec-02 15:31N 47°38' W 122°23'2 4.0
2017-Dec-02 15:01N 47°37' W 122°26'3 5.1
2017-Dec-02 14:31N 47°39' W 122°28'3 6.8
2017-Dec-02 14:01N 47°43' W 122°28'3 6.7
2017-Dec-02 13:31N 47°46' W 122°27'4 7.3
2017-Dec-02 13:01N 47°50' W 122°28'3 6.9
2017-Dec-02 12:31N 47°53' W 122°30'3 6.8
2017-Dec-02 12:01N 47°56' W 122°32'3 6.9
2017-Dec-02 11:30N 47°59' W 122°36'4 8.3
2017-Dec-02 10:58N 48°02' W 122°39'4 7.4
2017-Dec-02 10:27N 48°06' W 122°40'410.0
2017-Dec-02 10:00N 48°09' W 122°45'5 9.2
2017-Dec-02 09:30N 48°11' W 122°51'4 8.2
2017-Dec-02 09:00N 48°11' W 122°57'5 9.4
2017-Dec-02 08:30N 48°12' W 123°05'5 9.7
2017-Dec-02 07:59N 48°12' W 123°12'5 9.9
2017-Dec-02 07:31N 48°13' W 123°19'510.5
2017-Dec-02 07:00N 48°13' W 123°27'510.1
2017-Dec-02 06:30N 48°13' W 123°35'5 9.7
2017-Dec-02 06:01N 48°13' W 123°42'5 9.6
2017-Dec-02 05:30N 48°13' W 123°49'5 9.7
2017-Dec-02 05:01N 48°14' W 123°56'5 9.8
2017-Dec-02 04:31N 48°16' W 124°03'611.4
2017-Dec-02 04:00N 48°18' W 124°11'611.1
2017-Dec-02 03:30N 48°20' W 124°18'510.4
2017-Dec-02 03:00N 48°23' W 124°25'510.1
2017-Dec-02 02:31N 48°25' W 124°32'5 9.8
2017-Dec-02 02:01N 48°27' W 124°39'5 8.9
2017-Dec-02 01:30N 48°29' W 124°45'4 8.9
2017-Dec-02 01:01N 48°28' W 124°52'4 8.9
2017-Dec-02 00:31N 48°28' W 124°58'4 8.8
2017-Dec-02 00:01N 48°25' W 125°03'5 9.7
2017-Dec-01 23:30N 48°20' W 125°05'510.1
2017-Dec-01 23:00N 48°15' W 125°06'6 9.7
2017-Dec-01 22:25N 48°10' W 125°08'4 9.2
2017-Dec-01 21:58N 48°06' W 125°09'6 9.1
2017-Dec-01 21:21N 48°00' W 125°11'3 3.4
2017-Dec-01 20:31N 47°58' W 125°08'0 4.2
2017-Dec-01 20:29N 47°58' W 125°08'3 4.1
2017-Dec-01 19:46N 47°58' W 125°03'1 3.8
2017-Dec-01 19:30N 47°58' W 125°02'3 4.9
2017-Dec-01 18:55N 47°58' W 125°06'3 5.1
2017-Dec-01 18:24N 47°58' W 125°10'3 5.7
2017-Dec-01 17:58N 47°59' W 125°14'2 3.7
2017-Dec-01 17:21N 47°59' W 125°10'2 4.2
2017-Dec-01 16:56N 47°59' W 125°08'2 4.4
2017-Dec-01 16:23N 47°58' W 125°04'2 3.9
2017-Dec-01 15:59N 47°58' W 125°02'3 5.1
2017-Dec-01 15:23N 47°58' W 125°06'2 5.0
2017-Dec-01 14:59N 47°58' W 125°09'2 1.1
2017-Dec-01 13:03N 47°58' W 125°06'0 3.1
2017-Dec-01 13:00N 47°58' W 125°06'2 3.9
2017-Dec-01 12:29N 47°58' W 125°03'1 1.4
2017-Dec-01 11:59N 47°57' W 125°04'3 5.9
2017-Dec-01 11:28N 47°57' W 125°08'0 0.2
2017-Dec-01 09:48N 47°57' W 125°09'2 4.7
2017-Dec-01 09:23N 47°57' W 125°06'2 4.4
2017-Dec-01 09:00N 47°57' W 125°03'0 0.3
2017-Dec-01 08:30N 47°57' W 125°04'3 5.2
2017-Dec-01 08:00N 47°58' W 125°07'1 1.0
2017-Dec-01 07:25N 47°58' W 125°08'2 4.5
2017-Dec-01 06:52N 47°57' W 125°05'1 3.9
2017-Dec-01 06:29N 47°57' W 125°02'3 5.4
2017-Dec-01 05:55N 47°58' W 125°07'2 1.4
2017-Dec-01 04:06N 47°58' W 125°03'0 3.5
2017-Dec-01 04:00N 47°58' W 125°03'1 2.7
2017-Dec-01 03:30N 47°57' W 125°05'1 1.2
2017-Dec-01 02:18N 47°58' W 125°07'2 3.5
2017-Dec-01 01:47N 47°58' W 125°04'1 3.5
2017-Dec-01 01:30N 47°58' W 125°03'1 2.5
2017-Dec-01 01:00N 47°57' W 125°04'3 5.0
2017-Dec-01 00:24N 47°58' W 125°09'1 2.3
2017-Dec-01 00:00N 47°58' W 125°08'3 4.3
2017-Nov-30 23:19N 47°58' W 125°03'1 4.3
2017-Nov-30 22:59N 47°58' W 125°01'1 1.2
2017-Nov-30 22:30N 47°58' W 125°02'4 5.4
2017-Nov-30 21:50N 47°58' W 125°07'12 0.9
2017-Nov-30 09:32N 47°58' W 125°24'0 5.8
2017-Nov-30 09:28N 47°58' W 125°25'7 0.4
2017-Nov-29 14:53N 48°02' W 125°16'6 9.0
2017-Nov-29 14:15N 48°05' W 125°09'3 9.6
2017-Nov-29 13:58N 48°07' W 125°07'5 9.9
2017-Nov-29 13:29N 48°12' W 125°04'510.1
2017-Nov-29 13:00N 48°16' W 125°02'510.1
2017-Nov-29 12:30N 48°21' W 124°59'5 9.4
2017-Nov-29 12:01N 48°25' W 124°56'4 8.7
2017-Nov-29 11:31N 48°26' W 124°50'5 9.9
2017-Nov-29 11:01N 48°26' W 124°42'4 8.8
2017-Nov-29 10:31N 48°24' W 124°36'2 3.7
2017-Nov-29 10:01N 48°23' W 124°34'1 1.9
2017-Nov-29 09:30N 48°23' W 124°32'1 2.5
2017-Nov-29 09:01N 48°22' W 124°31'1 2.4
2017-Nov-29 08:31N 48°23' W 124°32'1 2.3
2017-Nov-29 08:01N 48°23' W 124°34'0 0.8
2017-Nov-29 07:30N 48°23' W 124°35'510.0
2017-Nov-29 07:01N 48°26' W 124°40'611.7
2017-Nov-29 06:30N 48°27' W 124°49'510.4
2017-Nov-29 05:59N 48°25' W 124°56'611.7
2017-Nov-29 05:29N 48°19' W 124°60'612.0
2017-Nov-29 05:00N 48°14' W 125°03'612.3
2017-Nov-29 04:30N 48°08' W 125°06'14 0.5
2017-Nov-27 23:57N 47°58' W 125°21'4 8.0
2017-Nov-27 23:28N 48°00' W 125°25'12 1.0
2017-Nov-27 11:08N 47°55' W 125°10'1 4.7
2017-Nov-27 10:54N 47°56' W 125°10'2 4.8
2017-Nov-27 10:28N 47°58' W 125°11'3 5.6
2017-Nov-27 10:00N 48°00' W 125°12'4 6.5
2017-Nov-27 09:25N 48°04' W 125°11'3 7.0
2017-Nov-27 09:00N 48°07' W 125°09'4 6.7
2017-Nov-27 08:28N 48°10' W 125°06'3 7.2
2017-Nov-27 08:00N 48°13' W 125°04'4 7.3
2017-Nov-27 07:31N 48°16' W 125°02'4 7.3
2017-Nov-27 07:00N 48°19' W 125°00'4 7.1
2017-Nov-27 06:30N 48°23' W 124°58'3 6.7
2017-Nov-27 06:00N 48°26' W 124°55'3 5.7
2017-Nov-27 05:30N 48°27' W 124°52'3 6.4
2017-Nov-27 05:00N 48°27' W 124°47'3 5.4
2017-Nov-27 04:31N 48°27' W 124°43'3 5.2
2017-Nov-27 04:01N 48°26' W 124°39'3 5.5
2017-Nov-27 03:31N 48°25' W 124°35'3 5.1
2017-Nov-27 03:01N 48°24' W 124°32'3 5.5
2017-Nov-27 02:30N 48°22' W 124°28'3 5.6
2017-Nov-27 02:00N 48°21' W 124°24'3 5.6
2017-Nov-27 01:30N 48°20' W 124°21'2 5.0
2017-Nov-27 01:00N 48°21' W 124°24'3 5.9
2017-Nov-27 00:30N 48°22' W 124°28'3 5.8
2017-Nov-27 00:01N 48°24' W 124°32'1 1.6
2017-Nov-26 23:30N 48°23' W 124°31'3 5.1
2017-Nov-26 23:01N 48°22' W 124°28'3 5.2
2017-Nov-26 22:31N 48°21' W 124°24'2 3.2
2017-Nov-26 22:01N 48°20' W 124°22'3 5.5
2017-Nov-26 21:30N 48°22' W 124°26'2 4.8
2017-Nov-26 21:01N 48°20' W 124°23'3 5.6
2017-Nov-26 20:30N 48°19' W 124°19'3 5.6
2017-Nov-26 20:01N 48°18' W 124°15'3 5.1
2017-Nov-26 19:30N 48°17' W 124°12'3 5.4
2017-Nov-26 19:00N 48°16' W 124°08'0 0.4
2017-Nov-26 18:30N 48°15' W 124°08'3 6.0
2017-Nov-26 18:00N 48°17' W 124°12'3 6.7
2017-Nov-26 17:31N 48°18' W 124°16'3 6.8
2017-Nov-26 17:01N 48°20' W 124°21'4 7.1
2017-Nov-26 16:31N 48°22' W 124°25'2 4.1
2017-Nov-26 16:00N 48°21' W 124°22'2 4.4
2017-Nov-26 15:30N 48°20' W 124°19'2 4.5
2017-Nov-26 15:01N 48°19' W 124°16'2 4.5
2017-Nov-26 14:30N 48°18' W 124°13'2 4.4
2017-Nov-26 14:01N 48°17' W 124°10'2 4.4
2017-Nov-26 13:31N 48°16' W 124°07'1 1.4
2017-Nov-26 13:00N 48°16' W 124°06'3 5.4
2017-Nov-26 12:31N 48°17' W 124°10'12 3.7
2017-Nov-26 09:12N 48°22' W 124°26'1 5.4
2017-Nov-26 09:01N 48°22' W 124°25'3 5.6
2017-Nov-26 08:30N 48°20' W 124°21'3 6.7
2017-Nov-26 08:00N 48°19' W 124°17'4 7.7
2017-Nov-26 07:30N 48°17' W 124°12'4 7.7
2017-Nov-26 07:01N 48°16' W 124°06'1 1.2
2017-Nov-26 06:30N 48°16' W 124°07'2 4.5
2017-Nov-26 06:01N 48°17' W 124°10'2 5.0
2017-Nov-26 05:31N 48°18' W 124°14'3 5.4
2017-Nov-26 05:01N 48°19' W 124°17'3 5.7
2017-Nov-26 04:30N 48°20' W 124°21'3 5.7
2017-Nov-26 04:00N 48°21' W 124°25'3 5.9
2017-Nov-26 03:31N 48°23' W 124°29'3 5.6
2017-Nov-26 03:01N 48°24' W 124°33'3 5.2
2017-Nov-26 02:31N 48°25' W 124°36'2 4.8
2017-Nov-26 02:01N 48°26' W 124°40'2 4.7
2017-Nov-26 01:30N 48°27' W 124°43'2 4.6
2017-Nov-26 01:01N 48°27' W 124°46'2 4.2
2017-Nov-26 00:29N 48°27' W 124°50'2 4.2
2017-Nov-26 00:00N 48°27' W 124°53'3 5.9
2017-Nov-25 23:29N 48°25' W 124°56'1 1.8
2017-Nov-25 23:00N 48°24' W 124°57'2 4.8
2017-Nov-25 22:30N 48°22' W 124°58'2 4.2
2017-Nov-25 21:59N 48°20' W 124°60'1 2.2
2017-Nov-25 21:30N 48°19' W 125°01'2 4.8
2017-Nov-25 21:01N 48°21' W 124°60'2 4.0
2017-Nov-25 20:29N 48°23' W 124°59'0 0.3
2017-Nov-25 20:01N 48°23' W 124°59'3 5.7
2017-Nov-25 19:30N 48°20' W 125°00'2 5.0
2017-Nov-25 19:00N 48°18' W 125°01'2 3.6
2017-Nov-25 18:30N 48°20' W 124°60'2 3.5
2017-Nov-25 18:00N 48°21' W 124°59'2 3.2
2017-Nov-25 17:30N 48°23' W 124°58'2 3.3
2017-Nov-25 17:00N 48°24' W 124°57'1 2.7
2017-Nov-25 16:30N 48°25' W 124°56'3 5.0
2017-Nov-25 16:00N 48°23' W 124°58'3 5.6
2017-Nov-25 15:30N 48°21' W 124°60'2 4.0
2017-Nov-25 15:00N 48°19' W 125°01'2 3.2
2017-Nov-25 14:30N 48°20' W 124°59'1 2.7
2017-Nov-25 14:00N 48°21' W 124°59'2 3.1
2017-Nov-25 13:30N 48°23' W 124°58'2 3.0
2017-Nov-25 12:59N 48°24' W 124°57'1 1.3
2017-Nov-25 12:31N 48°25' W 124°57'3 5.1
2017-Nov-25 12:01N 48°23' W 124°58'3 5.4
2017-Nov-25 11:29N 48°20' W 124°60'1 1.7
2017-Nov-25 10:59N 48°19' W 125°00'1 2.3
2017-Nov-25 10:30N 48°20' W 124°60'1 2.4
2017-Nov-25 10:00N 48°21' W 124°59'1 2.8
2017-Nov-25 09:31N 48°23' W 124°58'2 3.6
2017-Nov-25 09:00N 48°24' W 124°57'2 4.1
2017-Nov-25 08:30N 48°26' W 124°55'3 7.0
2017-Nov-25 08:00N 48°27' W 124°50'4 7.9
2017-Nov-25 07:31N 48°26' W 124°44'5 9.6
2017-Nov-25 07:01N 48°24' W 124°38'2 3.8
2017-Nov-25 06:30N 48°24' W 124°35'0 0.4
2017-Nov-25 06:01N 48°24' W 124°35'2 3.6
2017-Nov-25 05:31N 48°23' W 124°33'2 4.8
2017-Nov-25 05:01N 48°25' W 124°35'611.0
2017-Nov-25 04:30N 48°27' W 124°43'611.8
2017-Nov-25 04:00N 48°27' W 124°52'611.3
2017-Nov-25 03:30N 48°25' W 124°60'612.1
2017-Nov-25 03:00N 48°19' W 125°04'611.8
2017-Nov-25 02:28N 48°13' W 125°06'612.9
2017-Nov-25 01:59N 48°07' W 125°08'11 0.4
2017-Nov-23 19:46N 47°59' W 125°18'4 6.9
2017-Nov-23 19:12N 48°02' W 125°22'  

Dump ship's entire track history